Time;durP1;ratioP1;P1;durP2;ratioP2;P2;SDS_P1;SDS_P2;PMS_P1;PMS_P2;Temp;Humidity;BMP_temperature;BMP_pressure;BME280_temperature;BME280_humidity;BME280_pressure;Samples;Min_cycle;Max_cycle;Signal;HPM_P1;HPM_P2
2022/12/22 03:25:53;;;;;;;0.30;0.30;;;6.20;99.90;;;;;;5003891;28;21064;-75
2022/12/22 03:28:21;;;;;;;0.30;0.30;;;6.20;99.90;;;;;;5005105;28;20446;-75
2022/12/22 03:30:59;;;;;;;0.30;0.30;;;6.20;99.90;;;;;;5003430;28;20455;-75
2022/12/22 03:33:26;;;;;;;0.20;0.20;;;6.20;99.90;;;;;;5005488;28;20800;-76
2022/12/22 03:35:52;;;;;;;0.23;0.23;;;6.20;99.90;;;;;;5002122;28;20449;-76
2022/12/22 03:38:18;;;;;;;0.30;0.30;;;6.20;99.90;;;;;;5002705;28;21049;-76
2022/12/22 03:40:43;;;;;;;0.30;0.30;;;6.20;99.90;;;;;;5004486;28;20198;-75
2022/12/22 03:49:08;;;;;;;0.30;0.30;;;6.20;99.90;;;;;;5008185;28;20597;-75
2022/12/22 03:51:39;;;;;;;0.30;0.30;;;6.20;99.90;;;;;;5001870;28;20478;-75
2022/12/22 03:54:05;;;;;;;0.30;0.30;;;6.20;99.90;;;;;;5007874;28;20494;-75
2022/12/22 03:56:30;;;;;;;0.30;0.30;;;6.20;99.90;;;;;;5006213;28;20448;-76
2022/12/22 03:58:56;;;;;;;0.30;0.30;;;6.20;99.90;;;;;;5004767;28;20692;-75
2022/12/22 04:01:22;;;;;;;0.20;0.20;;;6.20;99.90;;;;;;5002272;28;20192;-75
2022/12/22 04:03:49;;;;;;;0.30;0.30;;;6.20;99.90;;;;;;5008515;28;20648;-75
2022/12/22 04:06:15;;;;;;;0.30;0.30;;;6.20;99.90;;;;;;5006496;28;20977;-75
2022/12/22 04:08:41;;;;;;;0.20;0.20;;;6.20;99.90;;;;;;5008175;28;20446;-76
2022/12/22 04:13:52;;;;;;;0.30;0.30;;;6.20;99.90;;;;;;4998398;28;20192;-75
2022/12/22 04:16:17;;;;;;;0.30;0.30;;;6.20;99.90;;;;;;5006099;28;20482;-75
2022/12/22 04:18:43;;;;;;;0.30;0.30;;;6.20;99.90;;;;;;4998069;28;20249;-75
2022/12/22 04:21:08;;;;;;;0.30;0.30;;;6.20;99.90;;;;;;5002250;28;20192;-76
2022/12/22 04:23:34;;;;;;;0.30;0.30;;;6.20;99.90;;;;;;4992304;28;20188;-75
2022/12/22 04:25:59;;;;;;;0.30;0.30;;;6.20;99.90;;;;;;5005572;28;20303;-75
2022/12/22 04:28:25;;;;;;;0.20;0.20;;;6.20;99.90;;;;;;5005119;28;20251;-75
2022/12/22 04:30:50;;;;;;;0.30;0.30;;;6.20;99.90;;;;;;5007231;28;20662;-75
2022/12/22 04:33:16;;;;;;;0.30;0.30;;;6.30;99.90;;;;;;5007748;28;20226;-75
2022/12/22 04:35:42;;;;;;;0.30;0.30;;;6.20;99.90;;;;;;5005196;28;20207;-75
2022/12/22 04:38:07;;;;;;;0.30;0.30;;;6.20;99.90;;;;;;5002233;28;20201;-76
2022/12/22 04:40:33;;;;;;;0.30;0.30;;;6.20;99.90;;;;;;5008088;28;20184;-75
2022/12/22 04:42:58;;;;;;;0.20;0.20;;;6.30;99.90;;;;;;5001864;28;20193;-76
2022/12/22 04:45:24;;;;;;;0.30;0.30;;;6.30;99.90;;;;;;5004849;28;20950;-76
2022/12/22 04:47:49;;;;;;;0.30;0.30;;;6.30;99.90;;;;;;4998297;28;20329;-75
2022/12/22 04:50:15;;;;;;;0.30;0.30;;;6.30;99.90;;;;;;5002550;28;20273;-75
2022/12/22 04:52:41;;;;;;;0.30;0.30;;;6.30;99.90;;;;;;5005411;28;20322;-75
2022/12/22 04:55:08;;;;;;;0.30;0.30;;;6.30;99.90;;;;;;5007569;28;20235;-76
2022/12/22 04:57:34;;;;;;;0.27;0.27;;;6.30;99.90;;;;;;5008904;28;20590;-76
2022/12/22 05:00:00;;;;;;;0.30;0.30;;;6.30;99.90;;;;;;5006296;28;20439;-75
2022/12/22 05:02:25;;;;;;;0.30;0.30;;;6.30;99.90;;;;;;5005346;28;20524;-76
2022/12/22 05:04:51;;;;;;;0.30;0.30;;;6.30;99.90;;;;;;4995652;28;20180;-76
2022/12/22 05:07:16;;;;;;;0.30;0.30;;;6.30;99.90;;;;;;5008629;28;20224;-76
2022/12/22 05:09:43;;;;;;;0.30;0.30;;;6.30;99.90;;;;;;5006624;28;20215;-76
2022/12/22 05:14:53;;;;;;;0.30;0.30;;;6.30;99.90;;;;;;5015674;28;20254;-75
2022/12/22 05:17:18;;;;;;;0.20;0.20;;;6.30;99.90;;;;;;5011866;28;20958;-75
2022/12/22 05:19:44;;;;;;;0.30;0.30;;;6.30;99.90;;;;;;5012740;28;20692;-75
2022/12/22 05:22:09;;;;;;;0.30;0.30;;;6.30;99.90;;;;;;5005503;28;20215;-76
2022/12/22 05:24:35;;;;;;;0.30;0.30;;;6.30;99.90;;;;;;5011213;28;20299;-75
2022/12/22 05:27:00;;;;;;;0.30;0.30;;;6.30;99.90;;;;;;5001016;28;20584;-75
2022/12/22 05:29:26;;;;;;;0.30;0.30;;;6.30;99.90;;;;;;5007092;28;20194;-75
2022/12/22 05:31:51;;;;;;;0.30;0.30;;;6.30;99.90;;;;;;5011300;28;20556;-76
2022/12/22 05:34:17;;;;;;;0.30;0.30;;;6.30;99.90;;;;;;5002758;28;20185;-75
2022/12/22 05:36:42;;;;;;;0.30;0.30;;;6.30;99.90;;;;;;5008169;28;20191;-75
2022/12/22 05:39:08;;;;;;;0.20;0.20;;;6.30;99.90;;;;;;5013108;28;20197;-76
2022/12/22 05:41:33;;;;;;;0.30;0.30;;;6.30;99.90;;;;;;5013611;28;20184;-75
2022/12/22 05:43:59;;;;;;;0.20;0.20;;;6.30;99.90;;;;;;5016032;28;20186;-76
2022/12/22 05:46:27;;;;;;;0.30;0.30;;;6.30;99.90;;;;;;5012266;28;20573;-76
2022/12/22 05:48:53;;;;;;;0.30;0.30;;;6.30;99.90;;;;;;5014093;28;20189;-75
2022/12/22 05:51:18;;;;;;;0.30;0.30;;;6.30;99.90;;;;;;5009088;28;20458;-75
2022/12/22 05:53:44;;;;;;;0.30;0.30;;;6.30;99.90;;;;;;5006887;28;20219;-76
2022/12/22 05:56:09;;;;;;;0.20;0.20;;;6.30;99.90;;;;;;5013545;28;20188;-76
2022/12/22 05:58:37;;;;;;;0.20;0.20;;;6.30;99.90;;;;;;5006791;28;20595;-76
2022/12/22 06:01:03;;;;;;;0.30;0.30;;;6.30;99.90;;;;;;4999385;28;20200;-76
2022/12/22 06:03:29;;;;;;;0.20;0.20;;;6.30;99.90;;;;;;5011887;28;20446;-76
2022/12/22 06:05:56;;;;;;;0.20;0.20;;;6.30;99.90;;;;;;5010804;28;20553;-76
2022/12/22 06:08:22;;;;;;;0.30;0.30;;;6.30;99.90;;;;;;5008300;28;20457;-76
2022/12/22 06:10:48;;;;;;;0.20;0.20;;;6.30;99.90;;;;;;5006827;28;20525;-76
2022/12/22 06:13:13;;;;;;;0.30;0.30;;;6.30;99.90;;;;;;5008274;28;20520;-75
2022/12/22 06:15:39;;;;;;;0.30;0.30;;;6.30;99.90;;;;;;5010887;28;20232;-76
2022/12/22 06:18:05;;;;;;;0.20;0.20;;;6.30;99.90;;;;;;5010989;28;20243;-76
2022/12/22 06:20:30;;;;;;;0.30;0.30;;;6.30;99.90;;;;;;4994527;28;20242;-76
2022/12/22 06:22:56;;;;;;;0.27;0.27;;;6.30;99.90;;;;;;5001417;28;20189;-76
2022/12/22 06:25:21;;;;;;;0.30;0.30;;;6.30;99.90;;;;;;4997477;28;20189;-76
2022/12/22 06:27:47;;;;;;;0.30;0.30;;;6.40;99.90;;;;;;5008334;28;20199;-76
2022/12/22 06:30:14;;;;;;;0.20;0.20;;;6.30;99.90;;;;;;5002111;28;20254;-76
2022/12/22 06:32:39;;;;;;;0.23;0.23;;;6.40;99.90;;;;;;5005312;28;20188;-75
2022/12/22 06:35:06;;;;;;;0.30;0.30;;;6.30;99.90;;;;;;5007287;28;20497;-78
2022/12/22 06:37:31;;;;;;;0.20;0.20;;;6.40;99.90;;;;;;5010520;28;20254;-77
2022/12/22 06:39:57;;;;;;;0.30;0.30;;;6.40;99.90;;;;;;5009796;28;21186;-78
2022/12/22 06:45:07;;;;;;;0.30;0.30;;;6.40;99.90;;;;;;5007177;28;20222;-78
2022/12/22 06:47:32;;;;;;;0.30;0.30;;;6.30;99.90;;;;;;5005145;28;20502;-77
2022/12/22 06:49:58;;;;;;;0.30;0.30;;;6.40;99.90;;;;;;5004177;28;20494;-77
2022/12/22 06:52:23;;;;;;;0.30;0.30;;;6.40;99.90;;;;;;5006034;28;20589;-77
2022/12/22 06:54:49;;;;;;;0.20;0.20;;;6.40;99.90;;;;;;5009836;28;20891;-77
2022/12/22 06:57:15;;;;;;;0.20;0.20;;;6.40;99.90;;;;;;5008693;28;20189;-78
2022/12/22 06:59:41;;;;;;;0.30;0.30;;;6.40;99.90;;;;;;5007988;28;20691;-77
2022/12/22 07:02:08;;;;;;;0.30;0.30;;;6.40;99.90;;;;;;5005432;28;20184;-78
2022/12/22 07:04:33;;;;;;;0.30;0.30;;;6.40;99.90;;;;;;5005690;28;20756;-77
2022/12/22 07:06:59;;;;;;;0.20;0.20;;;6.40;99.90;;;;;;5004159;28;20545;-78
2022/12/22 07:09:24;;;;;;;0.30;0.30;;;6.40;99.90;;;;;;5011328;28;20216;-76
2022/12/22 07:11:50;;;;;;;0.30;0.30;;;6.40;99.90;;;;;;5010394;28;20574;-77
2022/12/22 07:14:15;;;;;;;0.20;0.20;;;6.40;99.90;;;;;;5008002;28;20295;-77
2022/12/22 07:16:41;;;;;;;0.20;0.20;;;6.40;99.90;;;;;;5008436;28;20260;-77
2022/12/22 07:19:07;;;;;;;0.30;0.30;;;6.40;99.90;;;;;;5007204;28;20235;-78
2022/12/22 07:21:33;;;;;;;0.30;0.30;;;6.40;99.90;;;;;;5010292;28;20191;-77
2022/12/22 07:23:58;;;;;;;0.30;0.30;;;6.40;99.90;;;;;;5004140;28;20445;-77
2022/12/22 07:26:24;;;;;;;0.20;0.20;;;6.40;99.90;;;;;;5002963;28;20224;-78
2022/12/22 07:28:50;;;;;;;0.30;0.30;;;6.40;99.90;;;;;;4999734;28;20188;-77
2022/12/22 07:31:18;;;;;;;0.30;0.30;;;6.40;99.90;;;;;;5009145;28;20454;-78
2022/12/22 07:33:44;;;;;;;0.20;0.20;;;6.40;99.90;;;;;;5006559;28;20180;-78
2022/12/22 07:36:11;;;;;;;0.30;0.30;;;6.40;99.90;;;;;;5003625;28;20447;-77
2022/12/22 07:38:38;;;;;;;0.30;0.30;;;6.40;99.90;;;;;;5004321;28;20195;-78
2022/12/22 07:43:51;;;;;;;0.30;0.30;;;6.50;99.90;;;;;;5008569;28;20467;-78
2022/12/22 07:46:17;;;;;;;0.30;0.30;;;6.50;99.90;;;;;;5007058;28;20917;-81
2022/12/22 07:51:35;;;;;;;0.30;0.30;;;6.70;99.90;;;;;;5007151;28;20198;-77
2022/12/22 07:54:03;;;;;;;0.30;0.30;;;6.60;99.90;;;;;;5006738;28;20451;-77
2022/12/22 07:56:29;;;;;;;0.30;0.30;;;6.50;99.90;;;;;;5004969;28;20444;-77
2022/12/22 07:58:54;;;;;;;0.30;0.30;;;6.50;99.90;;;;;;4999599;28;20446;-74
2022/12/22 08:01:20;;;;;;;0.20;0.20;;;6.50;99.90;;;;;;5002502;28;20838;-74
2022/12/22 08:03:45;;;;;;;0.20;0.20;;;6.50;99.90;;;;;;5006044;28;20207;-75
2022/12/22 08:06:11;;;;;;;0.20;0.20;;;6.50;99.90;;;;;;5006316;28;20227;-75
2022/12/22 08:08:36;;;;;;;0.20;0.20;;;6.50;99.90;;;;;;5007732;28;20289;-75
2022/12/22 08:11:02;;;;;;;0.30;0.30;;;6.60;99.90;;;;;;5002863;28;20343;-74
2022/12/22 08:13:28;;;;;;;0.20;0.20;;;6.60;99.90;;;;;;5009378;28;20207;-75
2022/12/22 08:15:53;;;;;;;0.30;0.30;;;6.50;99.90;;;;;;5007804;28;20479;-74
2022/12/22 08:18:19;;;;;;;0.27;0.27;;;6.50;99.90;;;;;;5002961;28;20203;-74
2022/12/22 08:20:51;;;;;;;0.30;0.30;;;6.50;99.90;;;;;;5007737;28;20188;-75
2022/12/22 08:23:17;;;;;;;0.20;0.20;;;6.50;99.90;;;;;;5004527;28;21680;-75
2022/12/22 08:25:45;;;;;;;0.20;0.20;;;6.50;99.90;;;;;;5005926;28;20520;-75
2022/12/22 08:28:12;;;;;;;0.30;0.30;;;6.50;99.90;;;;;;5005090;28;20528;-75
2022/12/22 08:30:38;;;;;;;0.20;0.20;;;6.50;99.90;;;;;;5004075;28;20439;-74
2022/12/22 08:33:03;;;;;;;0.20;0.20;;;6.50;99.90;;;;;;5003808;28;20447;-75
2022/12/22 08:35:32;;;;;;;0.30;0.30;;;6.50;99.90;;;;;;5009517;28;20447;-75
2022/12/22 08:37:58;;;;;;;0.20;0.20;;;6.50;99.90;;;;;;5004399;28;20203;-74
2022/12/22 08:40:29;;;;;;;0.27;0.27;;;6.60;99.90;;;;;;5006634;28;20451;-74
2022/12/22 08:43:01;;;;;;;0.20;0.20;;;6.50;99.90;;;;;;5006543;28;20204;-74
2022/12/22 08:45:27;;;;;;;0.20;0.20;;;6.60;99.90;;;;;;5007074;28;20463;-74
2022/12/22 08:47:53;;;;;;;0.20;0.20;;;6.60;99.90;;;;;;5006593;28;20455;-74
2022/12/22 08:50:30;;;;;;;0.20;0.20;;;6.60;99.90;;;;;;5007213;28;20868;-74
2022/12/22 08:53:03;;;;;;;0.20;0.20;;;6.60;99.90;;;;;;5003653;28;20188;-74
2022/12/22 08:55:29;;;;;;;0.20;0.20;;;6.60;99.90;;;;;;5006917;28;20947;-74
2022/12/22 08:57:55;;;;;;;0.20;0.20;;;6.60;99.90;;;;;;4988230;28;20458;-75
2022/12/22 09:00:21;;;;;;;0.20;0.20;;;6.60;99.90;;;;;;5004868;28;20196;-75
2022/12/22 09:02:48;;;;;;;0.20;0.20;;;6.60;99.90;;;;;;4987785;28;20708;-75
2022/12/22 09:05:14;;;;;;;0.20;0.20;;;6.60;99.90;;;;;;5007724;28;20538;-76
2022/12/22 09:07:40;;;;;;;0.30;0.30;;;6.70;99.90;;;;;;4991882;28;21102;-76
2022/12/22 09:10:08;;;;;;;0.20;0.20;;;6.60;99.90;;;;;;4997153;28;20539;-76
2022/12/22 09:12:34;;;;;;;0.20;0.20;;;6.60;99.90;;;;;;5004497;28;20686;-75
2022/12/22 09:15:03;;;;;;;0.20;0.20;;;6.70;99.90;;;;;;5008548;28;20471;-75
2022/12/22 09:17:29;;;;;;;0.20;0.20;;;6.70;99.90;;;;;;5007067;28;20192;-76
2022/12/22 09:19:54;;;;;;;0.20;0.20;;;6.70;99.90;;;;;;5004598;28;20443;-75
2022/12/22 09:22:20;;;;;;;0.20;0.20;;;6.80;99.90;;;;;;5006318;28;20451;-75
2022/12/22 09:24:48;;;;;;;0.20;0.20;;;6.80;99.90;;;;;;4987682;28;20192;-75
2022/12/22 09:27:13;;;;;;;0.20;0.20;;;6.80;99.90;;;;;;5008392;28;20358;-75
2022/12/22 09:29:39;;;;;;;0.23;0.23;;;6.90;99.90;;;;;;5009591;28;20510;-75
2022/12/22 09:32:05;;;;;;;0.20;0.20;;;6.90;99.90;;;;;;5008048;28;20192;-75
2022/12/22 09:34:31;;;;;;;0.20;0.20;;;6.90;99.90;;;;;;5006497;28;20230;-75
2022/12/22 09:36:57;;;;;;;0.30;0.30;;;6.90;99.90;;;;;;5000223;28;20474;-75
2022/12/22 09:39:23;;;;;;;0.20;0.20;;;7.00;99.90;;;;;;5008541;28;20680;-76
2022/12/22 09:41:51;;;;;;;0.30;0.30;;;7.00;99.90;;;;;;5008969;28;20203;-73
2022/12/22 09:44:33;;;;;;;0.20;0.20;;;7.20;99.90;;;;;;5007586;28;20435;-74
2022/12/22 09:47:37;;;;;;;0.30;0.30;;;7.20;99.90;;;;;;5000695;28;20486;-73
2022/12/22 09:50:07;;;;;;;0.20;0.20;;;7.20;99.90;;;;;;4971634;28;20443;-73
2022/12/22 09:52:33;;;;;;;0.20;0.20;;;7.40;99.90;;;;;;5005117;28;20439;-75
2022/12/22 09:54:59;;;;;;;0.20;0.20;;;7.30;99.90;;;;;;5004208;28;20458;-75
2022/12/22 09:57:29;;;;;;;0.20;0.20;;;7.30;99.90;;;;;;5008986;28;20192;-75
2022/12/22 10:00:01;;;;;;;0.20;0.20;;;7.20;99.90;;;;;;5010379;28;20450;-74
2022/12/22 10:02:42;;;;;;;0.20;0.20;;;7.30;99.90;;;;;;5014000;28;20443;-73
2022/12/22 10:05:14;;;;;;;0.20;0.20;;;7.40;99.90;;;;;;4994874;28;20447;-73
2022/12/22 10:07:41;;;;;;;0.20;0.20;;;7.30;99.90;;;;;;5017824;28;20475;-75
2022/12/22 10:10:18;;;;;;;0.20;0.20;;;7.30;99.90;;;;;;5013643;28;20450;-73
2022/12/22 10:12:44;;;;;;;0.20;0.20;;;7.30;99.90;;;;;;5009527;28;20985;-75
2022/12/22 10:15:11;;;;;;;0.20;0.20;;;7.20;99.90;;;;;;5015071;28;20504;-74
2022/12/22 10:17:38;;;;;;;0.20;0.20;;;7.20;99.90;;;;;;5015323;28;20246;-74
2022/12/22 10:20:21;;;;;;;0.20;0.20;;;7.10;99.90;;;;;;5012095;28;20483;-77
2022/12/22 10:22:57;;;;;;;0.20;0.20;;;7.10;99.90;;;;;;5014444;28;20972;-76
2022/12/22 10:25:34;;;;;;;0.30;0.30;;;7.00;99.90;;;;;;5014979;28;20962;-76
2022/12/22 10:28:05;;;;;;;0.20;0.20;;;7.00;99.90;;;;;;5012573;28;20456;-76
2022/12/22 10:30:34;;;;;;;0.20;0.20;;;7.00;99.90;;;;;;5013800;28;20457;-76
2022/12/22 10:33:04;;;;;;;0.20;0.20;;;7.10;99.90;;;;;;5009931;28;20508;-76
2022/12/22 10:35:53;;;;;;;0.20;0.20;;;7.10;99.90;;;;;;5012618;28;20450;-76
2022/12/22 10:38:29;;;;;;;0.20;0.20;;;7.00;99.90;;;;;;5011080;28;20938;-76
2022/12/22 10:41:03;;;;;;;0.20;0.20;;;7.00;99.90;;;;;;5007795;28;20435;-76
2022/12/22 10:43:31;;;;;;;0.20;0.20;;;7.00;99.90;;;;;;5010184;28;20509;-74
2022/12/22 10:45:58;;;;;;;0.30;0.30;;;7.00;99.90;;;;;;5009358;28;20471;-76
2022/12/22 10:48:35;;;;;;;0.20;0.20;;;7.10;99.90;;;;;;5013347;28;20450;-76
2022/12/22 10:51:03;;;;;;;0.20;0.20;;;7.10;99.90;;;;;;5010509;28;20497;-76
2022/12/22 10:53:45;;;;;;;0.23;0.23;;;7.10;99.90;;;;;;5012218;28;20531;-76
2022/12/22 10:56:27;;;;;;;0.20;0.20;;;7.20;99.90;;;;;;5009854;28;20471;-77
2022/12/22 10:59:14;;;;;;;0.20;0.20;;;7.20;99.90;;;;;;5010723;28;20455;-77
2022/12/22 11:01:40;;;;;;;0.20;0.20;;;7.30;99.90;;;;;;5009406;28;20990;-77
2022/12/22 11:04:28;;;;;;;0.20;0.20;;;7.30;99.90;;;;;;5007993;28;20482;-77
2022/12/22 11:06:58;;;;;;;0.20;0.20;;;7.40;99.90;;;;;;5010834;28;20223;-76
2022/12/22 11:09:25;;;;;;;0.20;0.20;;;7.50;99.90;;;;;;4988322;28;20442;-77
2022/12/22 11:11:58;;;;;;;0.20;0.20;;;7.50;99.90;;;;;;5008028;28;20816;-77
2022/12/22 11:14:54;;;;;;;0.20;0.20;;;7.60;99.90;;;;;;5005782;28;20485;-76
2022/12/22 11:17:58;;;;;;;0.20;0.20;;;7.50;99.90;;;;;;4999366;28;21054;-77
2022/12/22 11:20:32;;;;;;;0.17;0.17;;;7.50;99.90;;;;;;5007043;28;20522;-76
2022/12/22 11:23:04;;;;;;;0.20;0.20;;;7.40;99.90;;;;;;5009407;28;20447;-77
2022/12/22 11:25:33;;;;;;;0.20;0.20;;;7.30;99.90;;;;;;5005196;28;20485;-75
2022/12/22 11:28:07;;;;;;;0.20;0.20;;;7.30;99.90;;;;;;5009337;28;20502;-76
2022/12/22 11:30:47;;;;;;;0.20;0.20;;;7.30;99.90;;;;;;5007250;28;20447;-76
2022/12/22 11:33:28;;;;;;;0.13;0.13;;;7.30;99.90;;;;;;5009961;28;20470;-75
2022/12/22 11:36:06;;;;;;;0.20;0.20;;;7.30;99.90;;;;;;5008440;28;20497;-75
2022/12/22 11:38:56;;;;;;;0.20;0.20;;;7.40;99.90;;;;;;5001748;28;20453;-75
2022/12/22 11:41:52;;;;;;;0.20;0.20;;;7.40;99.90;;;;;;5001694;28;20455;-78
2022/12/22 11:44:30;;;;;;;0.20;0.20;;;7.20;99.90;;;;;;5006020;28;20474;-78
2022/12/22 11:47:10;;;;;;;0.30;0.30;;;7.10;99.90;;;;;;5004662;28;20919;-77
2022/12/22 11:50:12;;;;;;;0.20;0.20;;;7.10;99.90;;;;;;5009703;28;21009;-77
2022/12/22 11:52:55;;;;;;;0.30;0.30;;;7.00;99.90;;;;;;5007851;28;20458;-77
2022/12/22 11:56:04;;;;;;;0.20;0.20;;;7.10;99.90;;;;;;5003053;28;20450;-78
2022/12/22 11:58:53;;;;;;;0.20;0.20;;;7.20;99.90;;;;;;4990360;28;20447;-77
2022/12/22 12:01:54;;;;;;;0.30;0.30;;;7.30;99.90;;;;;;5005397;28;20462;-77
2022/12/22 12:04:46;;;;;;;0.30;0.30;;;7.30;99.90;;;;;;5002639;28;20445;-78
2022/12/22 12:07:23;;;;;;;0.20;0.20;;;7.30;99.90;;;;;;5004976;28;20482;-78
2022/12/22 12:09:51;;;;;;;0.20;0.20;;;7.30;99.90;;;;;;5009997;28;20518;-77
2022/12/22 12:12:34;;;;;;;0.20;0.20;;;7.30;99.90;;;;;;5004822;28;20458;-78
2022/12/22 12:15:23;;;;;;;0.20;0.20;;;7.30;99.90;;;;;;5005634;28;20846;-77
2022/12/22 12:18:22;;;;;;;0.20;0.20;;;7.30;99.90;;;;;;4999442;28;20543;-77
2022/12/22 12:21:20;;;;;;;0.20;0.20;;;7.30;99.90;;;;;;4987246;28;20456;-77
2022/12/22 12:24:16;;;;;;;0.20;0.20;;;7.30;99.90;;;;;;5005843;28;20478;-77
2022/12/22 12:27:09;;;;;;;0.20;0.20;;;7.30;99.90;;;;;;5003262;28;20487;-77
2022/12/22 12:29:43;;;;;;;0.20;0.20;;;7.30;99.90;;;;;;5005664;28;20577;-76
2022/12/22 12:32:12;;;;;;;0.30;0.30;;;7.20;99.90;;;;;;5007083;28;20476;-76
2022/12/22 12:34:43;;;;;;;0.20;0.20;;;7.20;99.90;;;;;;5009713;28;20947;-76
2022/12/22 12:37:15;;;;;;;0.20;0.20;;;7.10;99.90;;;;;;5007252;28;20450;-76
2022/12/22 12:40:14;;;;;;;0.20;0.20;;;7.10;99.90;;;;;;5009624;28;20471;-77
2022/12/22 12:42:43;;;;;;;0.20;0.20;;;7.10;99.90;;;;;;5003054;28;20451;-76
2022/12/22 12:45:38;;;;;;;0.20;0.20;;;7.00;99.90;;;;;;5003492;28;20455;-76
2022/12/22 12:48:19;;;;;;;0.30;0.30;;;7.00;99.90;;;;;;5013775;28;20465;-76
2022/12/22 12:50:46;;;;;;;0.20;0.20;;;7.00;99.90;;;;;;5007453;28;20445;-76
2022/12/22 12:53:11;;;;;;;0.20;0.20;;;6.90;99.90;;;;;;5007449;28;20490;-76
2022/12/22 12:55:37;;;;;;;0.20;0.20;;;7.00;99.90;;;;;;5009107;28;20471;-76
2022/12/22 12:58:04;;;;;;;0.20;0.20;;;6.90;99.90;;;;;;5004527;28;20189;-76
2022/12/22 13:00:30;;;;;;;0.30;0.30;;;6.90;99.90;;;;;;5003190;28;20184;-76
2022/12/22 13:02:57;;;;;;;0.20;0.20;;;6.90;99.90;;;;;;5007199;28;20443;-76
2022/12/22 13:05:32;;;;;;;0.30;0.30;;;6.90;99.90;;;;;;5004721;28;20199;-76
2022/12/22 13:08:20;;;;;;;0.20;0.20;;;6.90;99.90;;;;;;5004602;28;20857;-75
2022/12/22 13:11:09;;;;;;;0.23;0.23;;;6.80;99.90;;;;;;5005164;28;20451;-76
2022/12/22 13:13:34;;;;;;;0.20;0.20;;;6.80;99.90;;;;;;5006851;28;20440;-77
2022/12/22 13:16:02;;;;;;;0.20;0.20;;;6.70;99.90;;;;;;5007337;28;20482;-76
2022/12/22 13:18:28;;;;;;;0.30;0.30;;;6.70;99.90;;;;;;4989408;28;20189;-76
2022/12/22 13:21:00;;;;;;;0.30;0.30;;;6.70;99.90;;;;;;5007745;28;20443;-76
2022/12/22 13:23:39;;;;;;;0.20;0.20;;;6.70;99.90;;;;;;5008040;28;20196;-76
2022/12/22 13:26:16;;;;;;;0.20;0.20;;;6.70;99.90;;;;;;5008544;28;20478;-76
2022/12/22 13:28:46;;;;;;;0.20;0.20;;;6.70;99.90;;;;;;5006273;28;20450;-76
2022/12/22 13:31:28;;;;;;;0.20;0.20;;;6.70;99.90;;;;;;4996250;28;20444;-76
2022/12/22 13:34:35;;;;;;;0.27;0.27;;;6.70;99.90;;;;;;5004174;28;20785;-76
2022/12/22 13:37:19;;;;;;;0.20;0.20;;;6.60;99.90;;;;;;5006816;28;20439;-76
2022/12/22 13:40:09;;;;;;;0.20;0.20;;;6.60;99.90;;;;;;5008894;28;20437;-76
2022/12/22 13:42:39;;;;;;;0.20;0.20;;;6.70;99.90;;;;;;5004526;28;20434;-76
2022/12/22 13:45:15;;;;;;;0.20;0.20;;;6.60;99.90;;;;;;5006551;28;20504;-76
2022/12/22 13:47:42;;;;;;;0.20;0.20;;;6.60;99.90;;;;;;5002927;28;20483;-76
2022/12/22 13:50:29;;;;;;;0.20;0.20;;;6.60;99.90;;;;;;5008271;28;20523;-76
2022/12/22 13:52:56;;;;;;;0.30;0.30;;;6.50;99.90;;;;;;5010330;28;21015;-76
2022/12/22 13:55:28;;;;;;;0.20;0.20;;;6.50;99.90;;;;;;5009398;28;20812;-76
2022/12/22 13:57:58;;;;;;;0.30;0.30;;;6.50;99.90;;;;;;5007995;28;20447;-76
2022/12/22 14:00:26;;;;;;;0.30;0.30;;;6.40;99.90;;;;;;5009233;28;20459;-76
2022/12/22 14:02:52;;;;;;;0.20;0.20;;;6.40;99.90;;;;;;5008974;28;20809;-76
2022/12/22 14:05:18;;;;;;;0.27;0.27;;;6.40;99.90;;;;;;5010502;28;20447;-76
2022/12/22 14:08:04;;;;;;;0.20;0.20;;;6.40;99.90;;;;;;5003559;28;20312;-76
2022/12/22 14:10:37;;;;;;;0.20;0.20;;;6.30;99.90;;;;;;5007965;28;20455;-77
2022/12/22 14:13:13;;;;;;;0.30;0.30;;;6.30;99.90;;;;;;5007946;28;20900;-80
2022/12/22 14:15:38;;;;;;;0.30;0.30;;;6.20;99.90;;;;;;5012267;28;20478;-80
2022/12/22 14:18:04;;;;;;;0.30;0.30;;;6.20;99.90;;;;;;5013043;28;20434;-80
2022/12/22 14:20:35;;;;;;;0.30;0.30;;;6.20;99.90;;;;;;5014042;28;20191;-80
2022/12/22 14:23:15;;;;;;;0.30;0.30;;;6.10;99.90;;;;;;5007866;28;20570;-79
2022/12/22 14:25:43;;;;;;;0.30;0.30;;;6.10;99.90;;;;;;5012303;28;20513;-79
2022/12/22 14:28:46;;;;;;;0.20;0.20;;;6.00;99.90;;;;;;5002692;28;20451;-80
2022/12/22 14:31:12;;;;;;;0.30;0.30;;;6.10;99.90;;;;;;4988347;28;20436;-80
2022/12/22 14:33:38;;;;;;;0.30;0.30;;;6.10;99.90;;;;;;5008275;28;20439;-80
2022/12/22 14:36:05;;;;;;;0.30;0.30;;;6.10;99.90;;;;;;5010163;28;20461;-78
2022/12/22 14:38:48;;;;;;;0.27;0.27;;;6.00;99.90;;;;;;5000104;28;20176;-77
2022/12/22 14:41:40;;;;;;;0.20;0.20;;;6.10;99.90;;;;;;4997438;28;20521;-80
2022/12/22 14:44:21;;;;;;;0.30;0.30;;;6.00;99.90;;;;;;4992063;28;20427;-80
2022/12/22 14:47:13;;;;;;;0.40;0.40;;;6.00;99.90;;;;;;4991699;28;20523;-80
2022/12/22 14:49:46;;;;;;;0.20;0.20;;;6.00;99.90;;;;;;4999887;28;20451;-80
2022/12/22 14:52:27;;;;;;;0.20;0.20;;;6.00;99.90;;;;;;4993012;28;20444;-80
2022/12/22 14:54:54;;;;;;;0.30;0.30;;;6.00;99.90;;;;;;4992922;28;20436;-80
2022/12/22 14:57:37;;;;;;;0.30;0.30;;;6.00;99.90;;;;;;5010566;28;20455;-80
2022/12/22 15:00:06;;;;;;;0.30;0.30;;;6.00;99.90;;;;;;5012387;28;20942;-79
2022/12/22 15:02:48;;;;;;;0.30;0.30;;;6.10;99.90;;;;;;5011515;28;20423;-80
2022/12/22 15:05:22;;;;;;;0.30;0.30;;;6.00;99.90;;;;;;5011024;28;20455;-80
2022/12/22 15:07:53;;;;;;;0.30;0.30;;;6.00;99.90;;;;;;5010361;28;20509;-80
2022/12/22 15:10:19;;;;;;;0.30;0.30;;;6.00;99.90;;;;;;5009333;28;20988;-79
2022/12/22 15:12:46;;;;;;;0.30;0.30;;;6.10;99.90;;;;;;5009351;28;20439;-79
2022/12/22 15:15:18;;;;;;;0.30;0.30;;;6.10;99.90;;;;;;5012033;28;20243;-80
2022/12/22 15:17:48;;;;;;;0.30;0.30;;;6.10;99.90;;;;;;5012141;28;20438;-80
2022/12/22 15:20:22;;;;;;;0.27;0.27;;;6.10;99.90;;;;;;5010482;28;20447;-80
2022/12/22 15:22:48;;;;;;;0.30;0.30;;;6.10;99.90;;;;;;4998897;28;20444;-77
2022/12/22 15:25:16;;;;;;;0.30;0.30;;;6.10;99.90;;;;;;5004578;28;20810;-79
2022/12/22 15:27:42;;;;;;;0.30;0.30;;;6.20;99.90;;;;;;5008620;28;20224;-78
2022/12/22 15:30:09;;;;;;;0.30;0.30;;;6.20;99.90;;;;;;5007802;28;20526;-78
2022/12/22 15:32:35;;;;;;;0.20;0.20;;;6.20;99.90;;;;;;5009279;28;20455;-78
2022/12/22 15:35:02;;;;;;;0.30;0.30;;;6.30;99.90;;;;;;5010739;28;20462;-77
2022/12/22 15:37:28;;;;;;;0.30;0.30;;;6.30;99.90;;;;;;5009469;28;20191;-79
2022/12/22 15:39:53;;;;;;;0.30;0.30;;;6.30;99.90;;;;;;5002789;28;21007;-79
2022/12/22 15:42:19;;;;;;;0.20;0.20;;;6.30;99.90;;;;;;5010380;28;20439;-78
2022/12/22 15:44:45;;;;;;;0.20;0.20;;;6.30;99.90;;;;;;5011172;28;20218;-79
2022/12/22 15:47:11;;;;;;;0.30;0.30;;;6.40;99.90;;;;;;5004030;28;20599;-78
2022/12/22 15:49:37;;;;;;;0.30;0.30;;;6.40;99.90;;;;;;5011461;28;20177;-78
2022/12/22 15:52:04;;;;;;;0.20;0.20;;;6.40;99.90;;;;;;5008773;28;20482;-78
2022/12/22 15:54:32;;;;;;;0.30;0.30;;;6.40;99.90;;;;;;5007854;28;20199;-78
2022/12/22 15:56:58;;;;;;;0.20;0.20;;;6.40;99.90;;;;;;5007224;28;20974;-78
2022/12/22 15:59:26;;;;;;;0.30;0.30;;;6.40;99.90;;;;;;5005424;28;20512;-77
2022/12/22 16:01:52;;;;;;;0.20;0.20;;;6.40;99.90;;;;;;5009550;28;20450;-76
2022/12/22 16:04:18;;;;;;;0.20;0.20;;;6.40;99.90;;;;;;4998988;28;20464;-75
2022/12/22 16:06:44;;;;;;;0.20;0.20;;;6.40;99.90;;;;;;5008101;28;20570;-76
2022/12/22 16:09:19;;;;;;;0.20;0.20;;;6.50;99.90;;;;;;5007877;28;20176;-76
2022/12/22 16:11:46;;;;;;;0.20;0.20;;;6.50;99.90;;;;;;5003371;28;20447;-76
2022/12/22 16:14:15;;;;;;;0.20;0.20;;;6.50;99.90;;;;;;5008448;28;20432;-76
2022/12/22 16:16:41;;;;;;;0.20;0.20;;;6.50;99.90;;;;;;5009003;28;20461;-76
2022/12/22 16:19:13;;;;;;;0.20;0.20;;;6.50;99.90;;;;;;5001963;28;20435;-76
2022/12/22 16:21:38;;;;;;;0.20;0.20;;;6.50;99.90;;;;;;5010230;28;20679;-76
2022/12/22 16:24:05;;;;;;;0.20;0.20;;;6.60;99.90;;;;;;5008294;28;20478;-76
2022/12/22 16:26:31;;;;;;;0.20;0.20;;;6.60;99.90;;;;;;5008493;28;20208;-76
2022/12/22 16:28:57;;;;;;;0.20;0.20;;;6.60;99.90;;;;;;5004315;28;20520;-76
2022/12/22 16:31:24;;;;;;;0.20;0.20;;;6.60;99.90;;;;;;5008612;28;20184;-76
2022/12/22 16:33:50;;;;;;;0.20;0.20;;;6.50;99.90;;;;;;5007198;28;20501;-75
2022/12/22 16:36:16;;;;;;;0.20;0.20;;;6.50;99.90;;;;;;5005354;28;20455;-76
2022/12/22 16:38:44;;;;;;;0.20;0.20;;;6.60;99.90;;;;;;5006295;28;20443;-76
2022/12/22 16:41:23;;;;;;;0.20;0.20;;;6.60;99.90;;;;;;5001798;28;20245;-76
2022/12/22 16:43:51;;;;;;;0.30;0.30;;;6.60;99.90;;;;;;5022974;28;20446;-76
2022/12/22 16:46:19;;;;;;;0.30;0.30;;;6.60;99.90;;;;;;5006759;28;20522;-76
2022/12/22 16:48:51;;;;;;;0.20;0.20;;;6.60;99.90;;;;;;5003010;28;20475;-76
2022/12/22 16:51:22;;;;;;;0.20;0.20;;;6.60;99.90;;;;;;4999542;28;20489;-76
2022/12/22 16:53:47;;;;;;;0.20;0.20;;;6.60;99.90;;;;;;5008962;28;21053;-76
2022/12/22 16:56:16;;;;;;;0.30;0.30;;;6.60;99.90;;;;;;5010806;28;20518;-75
2022/12/22 16:58:42;;;;;;;0.30;0.30;;;6.60;99.90;;;;;;5010210;28;20189;-76
2022/12/22 17:01:19;;;;;;;0.20;0.20;;;6.60;99.90;;;;;;5003764;28;20450;-76